Time;durP1;ratioP1;P1;durP2;ratioP2;P2;SDS_P1;SDS_P2;PMS_P1;PMS_P2;Temp;Humidity;BMP_temperature;BMP_pressure;BME280_temperature;BME280_humidity;BME280_pressure;Samples;Min_cycle;Max_cycle;Signal;HPM_P1;HPM_P2
2021/10/15 00:02:25;;;;;;;17.60;7.50;;;;;;;;;;5102053;22;20045;-61
2021/10/15 00:04:51;;;;;;;21.38;7.53;;;;;;;;;;5071770;28;20120;-65
2021/10/15 00:07:17;;;;;;;19.00;7.60;;;;;;;;;;5070229;28;20514;-63
2021/10/15 00:09:42;;;;;;;17.95;7.55;;;;;;;;;;5070545;28;20021;-63
2021/10/15 00:12:08;;;;;;;18.70;7.43;;;;;;;;;;5071557;28;20430;-64
2021/10/15 00:14:34;;;;;;;19.40;8.25;;;;;;;;;;5071159;28;20050;-65
2021/10/15 00:17:00;;;;;;;20.83;8.05;;;;;;;;;;5071200;28;20083;-64
2021/10/15 00:19:26;;;;;;;21.45;7.65;;;;;;;;;;5071545;28;20387;-64
2021/10/15 00:21:52;;;;;;;17.98;6.95;;;;;;;;;;5071374;28;20040;-65
2021/10/15 00:24:18;;;;;;;18.90;7.43;;;;;;;;;;5071521;28;20021;-65
2021/10/15 00:26:44;;;;;;;17.42;7.18;;;;;;;;;;5069714;28;20482;-65
2021/10/15 00:29:10;;;;;;;22.45;7.60;;;;;;;;;;5071487;28;20104;-65
2021/10/15 00:31:36;;;;;;;17.65;7.47;;;;;;;;;;5069802;28;20044;-62
2021/10/15 00:34:02;;;;;;;18.70;7.70;;;;;;;;;;5071125;28;20028;-65
2021/10/15 00:36:28;;;;;;;17.42;7.55;;;;;;;;;;5070017;28;20028;-63
2021/10/15 00:38:54;;;;;;;16.80;6.80;;;;;;;;;;5071342;28;20024;-66
2021/10/15 00:41:20;;;;;;;20.23;7.97;;;;;;;;;;5069915;28;20137;-64
2021/10/15 00:44:04;;;;;;;16.15;6.72;;;;;;;;;;5071000;28;20044;-64
2021/10/15 00:46:30;;;;;;;20.48;7.53;;;;;;;;;;5070884;28;20021;-64
2021/10/15 00:48:57;;;;;;;17.15;7.20;;;;;;;;;;5070891;28;20043;-64
2021/10/15 00:51:24;;;;;;;17.42;7.47;;;;;;;;;;5070620;28;20419;-64
2021/10/15 00:53:50;;;;;;;19.63;7.68;;;;;;;;;;5070856;28;20071;-63
2021/10/15 00:56:16;;;;;;;17.38;7.05;;;;;;;;;;5070396;28;20040;-63
2021/10/15 00:58:42;;;;;;;18.08;7.55;;;;;;;;;;5069344;28;20032;-65
2021/10/15 01:01:08;;;;;;;16.77;7.45;;;;;;;;;;5069053;28;20029;-65
2021/10/15 01:03:35;;;;;;;18.33;7.75;;;;;;;;;;5070505;28;20124;-65
2021/10/15 01:06:01;;;;;;;19.88;7.60;;;;;;;;;;5068894;28;20369;-64
2021/10/15 01:08:27;;;;;;;18.75;7.05;;;;;;;;;;5070331;28;20146;-63
2021/10/15 01:10:54;;;;;;;17.50;6.88;;;;;;;;;;5070578;28;20028;-64
2021/10/15 01:13:20;;;;;;;17.75;7.57;;;;;;;;;;5069073;28;20107;-64
2021/10/15 01:15:46;;;;;;;18.70;7.22;;;;;;;;;;5070251;28;20027;-64
2021/10/15 01:18:12;;;;;;;18.45;7.90;;;;;;;;;;5070543;28;20408;-63
2021/10/15 01:20:38;;;;;;;18.85;7.30;;;;;;;;;;5070236;28;20061;-61
2021/10/15 01:23:04;;;;;;;22.30;7.55;;;;;;;;;;5068788;28;20086;-65
2021/10/15 01:25:33;;;;;;;21.50;7.85;;;;;;;;;;5070148;28;20028;-62
2021/10/15 01:27:59;;;;;;;19.17;7.60;;;;;;;;;;5069009;28;20468;-64
2021/10/15 01:30:25;;;;;;;17.35;7.25;;;;;;;;;;5068892;28;20060;-63
2021/10/15 01:32:51;;;;;;;19.25;7.53;;;;;;;;;;5070185;28;20086;-63
2021/10/15 01:35:17;;;;;;;19.10;7.15;;;;;;;;;;5069068;28;20119;-64
2021/10/15 01:37:43;;;;;;;15.45;6.88;;;;;;;;;;5068663;28;20513;-64
2021/10/15 01:40:09;;;;;;;17.98;8.32;;;;;;;;;;5068965;28;20105;-61
2021/10/15 01:42:54;;;;;;;19.90;7.15;;;;;;;;;;5068618;28;20048;-63
2021/10/15 01:45:20;;;;;;;17.27;7.00;;;;;;;;;;5070130;28;20073;-65
2021/10/15 01:47:46;;;;;;;16.70;7.05;;;;;;;;;;5071606;28;20046;-64
2021/10/15 01:50:12;;;;;;;20.98;8.93;;;;;;;;;;5074402;28;20045;-63
2021/10/15 01:52:38;;;;;;;20.80;7.40;;;;;;;;;;5072839;28;20432;-65
2021/10/15 01:55:08;;;;;;;19.15;7.65;;;;;;;;;;5074474;28;20056;-64
2021/10/15 01:57:34;;;;;;;18.02;7.85;;;;;;;;;;5072540;28;20436;-64
2021/10/15 02:00:00;;;;;;;17.50;7.63;;;;;;;;;;5074129;28;20021;-65
2021/10/15 02:02:26;;;;;;;16.45;7.18;;;;;;;;;;5073816;28;20033;-65
2021/10/15 02:04:52;;;;;;;17.77;7.55;;;;;;;;;;5073757;28;20380;-64
2021/10/15 02:07:18;;;;;;;18.40;7.93;;;;;;;;;;5073658;28;20028;-65
2021/10/15 02:09:44;;;;;;;18.50;8.43;;;;;;;;;;5073809;28;20027;-65
2021/10/15 02:12:10;;;;;;;19.27;7.97;;;;;;;;;;5073584;28;20048;-63
2021/10/15 02:14:37;;;;;;;17.98;7.82;;;;;;;;;;5072553;28;20474;-64
2021/10/15 02:17:03;;;;;;;17.60;7.10;;;;;;;;;;5073475;28;20035;-65
2021/10/15 02:19:29;;;;;;;17.73;7.63;;;;;;;;;;5073714;28;20024;-63
2021/10/15 02:21:55;;;;;;;17.55;7.28;;;;;;;;;;5072222;28;20024;-63
2021/10/15 02:24:21;;;;;;;19.30;8.43;;;;;;;;;;5072309;28;20028;-65
2021/10/15 02:26:47;;;;;;;18.63;7.40;;;;;;;;;;5071701;28;20108;-65
2021/10/15 02:29:13;;;;;;;17.90;7.82;;;;;;;;;;5073401;28;20020;-64
2021/10/15 02:31:39;;;;;;;19.42;8.48;;;;;;;;;;5073186;28;20028;-66
2021/10/15 02:34:05;;;;;;;16.70;7.15;;;;;;;;;;5072173;28;20031;-65
2021/10/15 02:36:31;;;;;;;15.82;6.82;;;;;;;;;;5071844;28;20040;-65
2021/10/15 02:38:57;;;;;;;18.73;8.05;;;;;;;;;;5073290;28;20081;-65
2021/10/15 02:41:23;;;;;;;15.80;7.25;;;;;;;;;;5073119;28;20032;-64
2021/10/15 02:43:49;;;;;;;18.27;8.63;;;;;;;;;;5071654;28;20088;-64
2021/10/15 02:46:15;;;;;;;16.90;7.90;;;;;;;;;;5072687;28;20071;-64
2021/10/15 02:48:42;;;;;;;21.25;7.80;;;;;;;;;;5072949;28;20475;-63
2021/10/15 02:51:08;;;;;;;18.17;7.60;;;;;;;;;;5072911;28;20020;-62
2021/10/15 02:53:34;;;;;;;19.25;8.18;;;;;;;;;;5072973;28;20020;-63
2021/10/15 02:56:00;;;;;;;16.38;7.22;;;;;;;;;;5072605;28;20017;-63
2021/10/15 02:58:26;;;;;;;18.75;8.48;;;;;;;;;;5072172;28;20361;-63
2021/10/15 03:00:52;;;;;;;18.30;7.88;;;;;;;;;;5071287;28;20016;-58
2021/10/15 03:03:18;;;;;;;18.60;8.02;;;;;;;;;;5072916;28;20040;-65
2021/10/15 03:05:44;;;;;;;16.08;7.22;;;;;;;;;;5072562;28;20108;-63
2021/10/15 03:08:10;;;;;;;19.27;8.15;;;;;;;;;;5072696;28;20028;-65
2021/10/15 03:10:36;;;;;;;17.50;7.38;;;;;;;;;;5072471;28;20100;-66
2021/10/15 03:13:02;;;;;;;18.48;7.88;;;;;;;;;;5072833;28;20051;-65
2021/10/15 03:15:28;;;;;;;17.35;7.28;;;;;;;;;;5072543;28;20551;-64
2021/10/15 03:17:55;;;;;;;17.00;6.70;;;;;;;;;;5072275;28;20086;-65
2021/10/15 03:20:21;;;;;;;17.58;7.72;;;;;;;;;;5072408;28;20032;-64
2021/10/15 03:22:47;;;;;;;18.55;8.63;;;;;;;;;;5072163;28;20054;-64
2021/10/15 03:25:13;;;;;;;17.92;7.75;;;;;;;;;;5071914;28;20028;-64
2021/10/15 03:27:39;;;;;;;16.70;7.55;;;;;;;;;;5071896;28;20115;-64
2021/10/15 03:30:05;;;;;;;19.27;7.80;;;;;;;;;;5071965;28;20520;-65
2021/10/15 03:32:31;;;;;;;16.15;7.47;;;;;;;;;;5072140;28;20108;-64
2021/10/15 03:34:57;;;;;;;18.40;7.70;;;;;;;;;;5072031;28;20064;-60
2021/10/15 03:37:23;;;;;;;18.38;8.05;;;;;;;;;;5071968;28;20077;-64
2021/10/15 03:39:50;;;;;;;20.42;8.27;;;;;;;;;;5070722;28;20119;-63
2021/10/15 03:42:16;;;;;;;17.30;7.93;;;;;;;;;;5070652;28;20025;-64
2021/10/15 03:44:42;;;;;;;19.13;8.38;;;;;;;;;;5070648;28;20036;-64
2021/10/15 03:47:08;;;;;;;16.92;7.82;;;;;;;;;;5070409;28;20017;-65
2021/10/15 03:49:34;;;;;;;16.60;7.88;;;;;;;;;;5070627;28;20052;-64
2021/10/15 03:52:00;;;;;;;17.60;7.97;;;;;;;;;;5070591;28;20514;-64
2021/10/15 03:54:26;;;;;;;17.42;7.75;;;;;;;;;;5071887;28;20047;-64
2021/10/15 03:56:52;;;;;;;19.30;8.50;;;;;;;;;;5070513;28;20021;-62
2021/10/15 03:59:18;;;;;;;17.73;7.75;;;;;;;;;;5071990;28;20036;-64
2021/10/15 04:01:44;;;;;;;18.02;7.90;;;;;;;;;;5070514;28;20043;-64
2021/10/15 04:04:10;;;;;;;19.20;8.20;;;;;;;;;;5070486;28;20025;-63
2021/10/15 04:06:36;;;;;;;19.48;8.23;;;;;;;;;;5070581;28;20070;-64
2021/10/15 04:09:02;;;;;;;19.38;8.30;;;;;;;;;;5071950;28;20028;-64
2021/10/15 04:11:28;;;;;;;16.67;7.80;;;;;;;;;;5069109;28;20173;-65
2021/10/15 04:13:54;;;;;;;20.10;8.18;;;;;;;;;;5071309;28;20028;-65
2021/10/15 04:16:20;;;;;;;22.63;7.80;;;;;;;;;;5070023;28;20020;-65
2021/10/15 04:18:46;;;;;;;18.80;8.43;;;;;;;;;;5071052;28;20349;-65
2021/10/15 04:21:12;;;;;;;19.17;8.63;;;;;;;;;;5069667;28;20032;-64
2021/10/15 04:23:38;;;;;;;19.02;8.30;;;;;;;;;;5069575;28;20111;-65
2021/10/15 04:26:04;;;;;;;18.35;8.10;;;;;;;;;;5069379;28;20444;-65
2021/10/15 04:28:30;;;;;;;23.88;8.98;;;;;;;;;;5070963;28;20098;-65
2021/10/15 04:30:56;;;;;;;18.13;7.63;;;;;;;;;;5070740;28;20017;-62
2021/10/15 04:33:22;;;;;;;19.25;8.93;;;;;;;;;;5070876;28;20483;-64
2021/10/15 04:35:48;;;;;;;18.30;8.35;;;;;;;;;;5069173;28;20059;-65
2021/10/15 04:38:14;;;;;;;20.33;8.20;;;;;;;;;;5069577;28;20074;-64
2021/10/15 04:40:40;;;;;;;20.20;8.20;;;;;;;;;;5069111;28;20028;-65
2021/10/15 04:43:07;;;;;;;20.23;8.05;;;;;;;;;;5070535;28;20476;-65
2021/10/15 04:45:33;;;;;;;19.27;8.45;;;;;;;;;;5070034;28;20047;-62
2021/10/15 04:47:59;;;;;;;19.23;8.48;;;;;;;;;;5070501;28;20480;-66
2021/10/15 04:50:25;;;;;;;21.17;8.45;;;;;;;;;;5070641;28;20031;-64
2021/10/15 04:52:51;;;;;;;22.80;9.13;;;;;;;;;;5070459;28;20020;-64
2021/10/15 04:55:17;;;;;;;20.80;9.38;;;;;;;;;;5070930;28;20444;-64
2021/10/15 04:57:43;;;;;;;21.38;9.27;;;;;;;;;;5070180;28;20031;-64
2021/10/15 05:00:09;;;;;;;19.60;8.63;;;;;;;;;;5069029;28;20020;-65
2021/10/15 05:02:41;;;;;;;19.50;8.40;;;;;;;;;;5068869;28;20151;-63
2021/10/15 05:05:12;;;;;;;20.70;8.90;;;;;;;;;;5070179;28;20158;-63
2021/10/15 05:07:40;;;;;;;18.52;8.10;;;;;;;;;;5068930;28;20411;-64
2021/10/15 05:10:06;;;;;;;20.15;9.20;;;;;;;;;;5069044;28;20043;-63
2021/10/15 05:12:32;;;;;;;19.08;9.20;;;;;;;;;;5070144;28;20062;-65
2021/10/15 05:14:58;;;;;;;20.73;9.25;;;;;;;;;;5070151;28;20458;-63
2021/10/15 05:17:24;;;;;;;19.73;8.45;;;;;;;;;;5069862;28;20085;-65
2021/10/15 05:19:50;;;;;;;22.08;8.88;;;;;;;;;;5068975;28;20388;-63
2021/10/15 05:22:16;;;;;;;20.77;8.90;;;;;;;;;;5061306;28;20079;-65
2021/10/15 05:24:42;;;;;;;21.92;9.52;;;;;;;;;;5063971;28;20039;-65
2021/10/15 05:27:08;;;;;;;22.02;9.55;;;;;;;;;;5049863;28;20100;-64
2021/10/15 05:29:34;;;;;;;22.98;9.73;;;;;;;;;;5054262;28;20072;-65
2021/10/15 05:32:00;;;;;;;17.70;8.20;;;;;;;;;;5068672;28;20116;-65
2021/10/15 05:34:26;;;;;;;21.15;8.82;;;;;;;;;;5069516;28;20108;-65
2021/10/15 05:36:52;;;;;;;18.50;8.55;;;;;;;;;;5068253;28;20076;-65
2021/10/15 05:39:18;;;;;;;20.88;9.32;;;;;;;;;;5068575;28;20024;-65
2021/10/15 05:41:44;;;;;;;20.92;9.38;;;;;;;;;;5069951;28;20476;-65
2021/10/15 05:44:10;;;;;;;20.65;9.70;;;;;;;;;;5070150;28;20069;-65
2021/10/15 05:46:36;;;;;;;20.75;8.57;;;;;;;;;;5069617;28;20024;-64
2021/10/15 05:49:02;;;;;;;21.73;9.20;;;;;;;;;;5070302;28;20021;-59
2021/10/15 05:51:29;;;;;;;22.23;9.27;;;;;;;;;;5070576;28;20372;-62
2021/10/15 05:53:58;;;;;;;22.40;8.73;;;;;;;;;;5069877;28;20031;-64
2021/10/15 05:56:43;;;;;;;21.08;8.95;;;;;;;;;;5052743;28;20040;-63
2021/10/15 05:59:09;;;;;;;20.63;8.63;;;;;;;;;;5049911;28;20021;-63
2021/10/15 06:01:36;;;;;;;21.52;9.60;;;;;;;;;;5079326;22;20806;-63
2021/10/15 06:14:28;;;;;;;22.20;10.20;;;;;;;;;;5090890;28;20042;-63
2021/10/15 06:16:58;;;;;;;21.73;9.80;;;;;;;;;;5089344;28;20082;-60
2021/10/15 06:19:26;;;;;;;24.42;9.45;;;;;;;;;;5090695;28;20081;-62
2021/10/15 06:21:52;;;;;;;23.50;9.45;;;;;;;;;;5090920;28;20023;-60
2021/10/15 06:24:18;;;;;;;25.23;9.45;;;;;;;;;;5089336;28;20135;-61
2021/10/15 06:26:45;;;;;;;22.08;10.55;;;;;;;;;;5089441;28;20467;-60
2021/10/15 06:29:11;;;;;;;23.42;10.20;;;;;;;;;;5089244;28;20028;-61
2021/10/15 06:31:37;;;;;;;20.40;9.48;;;;;;;;;;5090362;28;20391;-63
2021/10/15 06:34:03;;;;;;;20.83;8.82;;;;;;;;;;5090684;28;20544;-63
2021/10/15 06:36:29;;;;;;;19.90;8.88;;;;;;;;;;5092549;28;20462;-61
2021/10/15 06:38:55;;;;;;;24.52;9.85;;;;;;;;;;5092644;28;20039;-58
2021/10/15 06:41:21;;;;;;;21.73;7.82;;;;;;;;;;5094100;28;20035;-59
2021/10/15 06:43:47;;;;;;;23.80;10.82;;;;;;;;;;5093977;28;20537;-57
2021/10/15 06:46:13;;;;;;;21.70;9.95;;;;;;;;;;5092258;28;20111;-60
2021/10/15 06:48:40;;;;;;;24.25;9.68;;;;;;;;;;5093980;28;20480;-60
2021/10/15 06:51:06;;;;;;;23.23;9.23;;;;;;;;;;5093861;28;20035;-60
2021/10/15 06:53:32;;;;;;;22.60;9.73;;;;;;;;;;5092727;28;20024;-60
2021/10/15 06:55:58;;;;;;;22.95;9.73;;;;;;;;;;5093736;28;20048;-61
2021/10/15 06:58:24;;;;;;;24.63;9.98;;;;;;;;;;5092725;28;20066;-60
2021/10/15 07:00:50;;;;;;;19.80;9.23;;;;;;;;;;5089931;28;20019;-62
2021/10/15 07:03:17;;;;;;;22.02;9.10;;;;;;;;;;5081711;28;20024;-63
2021/10/15 07:05:43;;;;;;;24.23;10.90;;;;;;;;;;5081706;28;20105;-64
2021/10/15 07:08:09;;;;;;;22.23;9.18;;;;;;;;;;5084069;28;20020;-63
2021/10/15 07:10:35;;;;;;;22.13;9.95;;;;;;;;;;5091593;28;20066;-63
2021/10/15 07:13:01;;;;;;;19.95;9.40;;;;;;;;;;5093615;28;20028;-63
2021/10/15 07:15:27;;;;;;;23.20;9.50;;;;;;;;;;5093641;28;20380;-64
2021/10/15 07:17:53;;;;;;;20.23;8.63;;;;;;;;;;5093432;28;20031;-64
2021/10/15 07:20:20;;;;;;;25.50;10.68;;;;;;;;;;5093490;28;20031;-64
2021/10/15 07:22:46;;;;;;;19.42;8.98;;;;;;;;;;5091774;28;20076;-64
2021/10/15 07:25:12;;;;;;;22.23;10.07;;;;;;;;;;5091936;28;20028;-63
2021/10/15 07:27:38;;;;;;;24.15;11.02;;;;;;;;;;5091831;28;20030;-62
2021/10/15 07:30:05;;;;;;;21.48;9.65;;;;;;;;;;5093480;28;20020;-63
2021/10/15 07:32:31;;;;;;;24.48;11.15;;;;;;;;;;5093270;28;20024;-64
2021/10/15 07:34:57;;;;;;;22.50;8.55;;;;;;;;;;5092059;28;20046;-64
2021/10/15 07:37:25;;;;;;;19.08;8.93;;;;;;;;;;5092275;28;20035;-64
2021/10/15 07:39:51;;;;;;;22.88;9.35;;;;;;;;;;5093588;28;20046;-62
2021/10/15 07:42:17;;;;;;;23.50;10.32;;;;;;;;;;5092222;28;20601;-64
2021/10/15 07:44:43;;;;;;;22.90;10.68;;;;;;;;;;5093052;28;20032;-65
2021/10/15 07:47:09;;;;;;;22.23;10.80;;;;;;;;;;5092705;28;20027;-63
2021/10/15 07:49:37;;;;;;;20.90;9.73;;;;;;;;;;5090510;28;20024;-64
2021/10/15 07:52:03;;;;;;;28.48;11.68;;;;;;;;;;5090847;28;20020;-64
2021/10/15 07:54:30;;;;;;;27.05;11.60;;;;;;;;;;5090569;28;20032;-64
2021/10/15 07:56:56;;;;;;;25.70;15.70;;;;;;;;;;5090202;28;20075;-66
2021/10/15 07:59:22;;;;;;;28.80;18.25;;;;;;;;;;5089801;28;20391;-65
2021/10/15 08:01:48;;;;;;;29.25;21.85;;;;;;;;;;5089811;28;20028;-64
2021/10/15 08:04:14;;;;;;;36.70;27.85;;;;;;;;;;5091970;28;20173;-64
2021/10/15 08:06:40;;;;;;;35.40;27.38;;;;;;;;;;5093028;28;20027;-64
2021/10/15 08:09:06;;;;;;;37.83;30.80;;;;;;;;;;5091369;28;20046;-63
2021/10/15 08:11:32;;;;;;;35.58;29.77;;;;;;;;;;5092607;28;20024;-64
2021/10/15 08:13:58;;;;;;;42.88;31.38;;;;;;;;;;5091676;28;20391;-64
2021/10/15 08:16:24;;;;;;;37.15;29.35;;;;;;;;;;5092157;28;20024;-64
2021/10/15 08:18:50;;;;;;;35.35;28.40;;;;;;;;;;5091286;28;20030;-64
2021/10/15 08:21:18;;;;;;;34.65;26.95;;;;;;;;;;5092551;28;20494;-64
2021/10/15 08:23:45;;;;;;;31.65;26.17;;;;;;;;;;5090411;28;20047;-64
2021/10/15 08:26:11;;;;;;;36.10;27.15;;;;;;;;;;5090980;28;20028;-63
2021/10/15 08:28:38;;;;;;;36.00;28.23;;;;;;;;;;5091116;28;20024;-64
2021/10/15 08:31:05;;;;;;;39.13;27.88;;;;;;;;;;5090903;28;20024;-64
2021/10/15 08:33:31;;;;;;;35.88;26.63;;;;;;;;;;5090592;28;20119;-64
2021/10/15 08:35:57;;;;;;;32.63;25.35;;;;;;;;;;5091868;28;20028;-64
2021/10/15 08:38:23;;;;;;;35.10;26.33;;;;;;;;;;5091058;28;20028;-65
2021/10/15 08:40:49;;;;;;;34.60;25.13;;;;;;;;;;5091160;28;20372;-64
2021/10/15 08:43:15;;;;;;;30.52;23.88;;;;;;;;;;5092055;28;20510;-63
2021/10/15 08:45:42;;;;;;;27.85;22.02;;;;;;;;;;5090539;28;20032;-63
2021/10/15 08:48:08;;;;;;;33.35;22.98;;;;;;;;;;5090696;28;20024;-63
2021/10/15 08:50:35;;;;;;;31.67;22.65;;;;;;;;;;5092430;28;20024;-64
2021/10/15 08:53:02;;;;;;;29.60;22.05;;;;;;;;;;5090631;28;20112;-64
2021/10/15 08:55:28;;;;;;;27.58;19.17;;;;;;;;;;5090522;28;20099;-64
2021/10/15 08:57:55;;;;;;;25.13;19.00;;;;;;;;;;5091279;28;20027;-65
2021/10/15 09:00:26;;;;;;;25.08;19.80;;;;;;;;;;5092061;28;20020;-64
2021/10/15 09:03:11;;;;;;;22.23;16.25;;;;;;;;;;5090386;28;20104;-65
2021/10/15 09:05:37;;;;;;;24.33;16.35;;;;;;;;;;5090196;28;20020;-65
2021/10/15 09:08:04;;;;;;;25.73;17.05;;;;;;;;;;5092017;28;20433;-65
2021/10/15 09:10:31;;;;;;;27.17;17.98;;;;;;;;;;5092357;28;20020;-63
2021/10/15 09:12:57;;;;;;;19.77;13.15;;;;;;;;;;5090586;28;20025;-62
2021/10/15 09:15:33;;;;;;;19.27;11.90;;;;;;;;;;5090738;28;20028;-65
2021/10/15 09:18:09;;;;;;;19.13;11.38;;;;;;;;;;5090979;28;20027;-64
2021/10/15 09:20:35;;;;;;;18.58;12.13;;;;;;;;;;5091888;28;20035;-64
2021/10/15 09:23:01;;;;;;;15.82;11.38;;;;;;;;;;5092107;28;20141;-64
2021/10/15 09:25:35;;;;;;;17.05;11.65;;;;;;;;;;5091872;28;20483;-63
2021/10/15 09:28:01;;;;;;;14.85;9.80;;;;;;;;;;5090403;28;20028;-64
2021/10/15 09:30:28;;;;;;;14.60;9.77;;;;;;;;;;5090322;28;20099;-64
2021/10/15 09:32:56;;;;;;;15.50;10.30;;;;;;;;;;5091754;28;20020;-63
2021/10/15 09:35:23;;;;;;;15.60;10.35;;;;;;;;;;5091842;28;20024;-64
2021/10/15 09:37:51;;;;;;;15.10;9.60;;;;;;;;;;5091635;28;20031;-64
2021/10/15 09:40:18;;;;;;;15.38;9.30;;;;;;;;;;5091295;28;20467;-64
2021/10/15 09:42:48;;;;;;;14.15;8.75;;;;;;;;;;5090064;28;20491;-64
2021/10/15 09:45:16;;;;;;;14.32;8.77;;;;;;;;;;5091064;28;20032;-66
2021/10/15 09:47:43;;;;;;;14.57;8.65;;;;;;;;;;5089918;28;20028;-64
2021/10/15 09:50:09;;;;;;;15.68;9.10;;;;;;;;;;5091683;28;20024;-64
2021/10/15 09:52:43;;;;;;;14.95;8.88;;;;;;;;;;5091189;28;20020;-64
2021/10/15 09:55:14;;;;;;;14.65;9.10;;;;;;;;;;5091481;28;20413;-64
2021/10/15 09:57:41;;;;;;;16.88;8.88;;;;;;;;;;5091108;28;20081;-64
2021/10/15 10:00:08;;;;;;;14.88;9.30;;;;;;;;;;5089923;28;20032;-64
2021/10/15 10:02:35;;;;;;;14.50;9.13;;;;;;;;;;5090745;28;20131;-64
2021/10/15 10:05:02;;;;;;;15.38;9.15;;;;;;;;;;5091054;28;20056;-64
2021/10/15 10:07:28;;;;;;;15.70;9.30;;;;;;;;;;5091114;28;20024;-64
2021/10/15 10:09:54;;;;;;;14.65;9.32;;;;;;;;;;5092509;28;20093;-64
2021/10/15 10:12:20;;;;;;;15.27;8.80;;;;;;;;;;5094355;28;20118;-64
2021/10/15 10:14:47;;;;;;;15.75;8.80;;;;;;;;;;5094907;28;20032;-65
2021/10/15 10:17:15;;;;;;;14.38;8.20;;;;;;;;;;5096170;28;20145;-64
2021/10/15 10:19:42;;;;;;;16.15;8.30;;;;;;;;;;5093995;28;20031;-63
2021/10/15 10:22:08;;;;;;;13.57;7.93;;;;;;;;;;5093737;28;20172;-60
2021/10/15 10:24:35;;;;;;;15.35;8.35;;;;;;;;;;5094605;28;20031;-63
2021/10/15 10:27:01;;;;;;;15.13;8.40;;;;;;;;;;5092693;28;20051;-64
2021/10/15 10:29:28;;;;;;;15.00;8.57;;;;;;;;;;5094655;28;20046;-64
2021/10/15 10:32:12;;;;;;;15.13;8.30;;;;;;;;;;5094109;28;20508;-63
2021/10/15 10:34:38;;;;;;;14.40;8.30;;;;;;;;;;5094036;28;20432;-64
2021/10/15 10:37:12;;;;;;;14.98;7.88;;;;;;;;;;5094098;28;20068;-63
2021/10/15 10:39:39;;;;;;;14.68;7.97;;;;;;;;;;5094407;28;20111;-63
2021/10/15 10:42:08;;;;;;;13.73;7.40;;;;;;;;;;5093113;28;20020;-63
2021/10/15 10:44:35;;;;;;;47.35;32.15;;;;;;;;;;5094117;28;20035;-63
2021/10/15 10:47:11;;;;;;;17.08;8.63;;;;;;;;;;5092410;28;20059;-64
2021/10/15 10:49:38;;;;;;;16.60;7.70;;;;;;;;;;5094078;28;20016;-63
2021/10/15 10:52:08;;;;;;;14.77;7.18;;;;;;;;;;5094167;28;20099;-63
2021/10/15 10:54:34;;;;;;;14.98;7.40;;;;;;;;;;5092436;28;20108;-64
2021/10/15 10:57:12;;;;;;;14.98;7.40;;;;;;;;;;5093973;28;20106;-64
2021/10/15 10:59:38;;;;;;;15.68;7.20;;;;;;;;;;5093922;28;20027;-64
2021/10/15 11:02:04;;;;;;;15.00;7.00;;;;;;;;;;5093448;28;20031;-64
2021/10/15 11:04:31;;;;;;;14.50;6.60;;;;;;;;;;5093937;28;20431;-64
2021/10/15 11:07:02;;;;;;;16.08;8.00;;;;;;;;;;5093314;28;20107;-63
2021/10/15 11:09:45;;;;;;;16.38;8.43;;;;;;;;;;5093982;28;20023;-63
2021/10/15 11:12:12;;;;;;;22.45;10.85;;;;;;;;;;5092037;28;20035;-64
2021/10/15 11:14:49;;;;;;;18.48;10.77;;;;;;;;;;5093263;28;20028;-63
2021/10/15 11:17:16;;;;;;;18.67;10.10;;;;;;;;;;5093236;28;20031;-64
2021/10/15 11:19:42;;;;;;;16.45;10.27;;;;;;;;;;5091235;28;20479;-64
2021/10/15 11:22:08;;;;;;;17.73;11.05;;;;;;;;;;5092890;28;20121;-64
2021/10/15 11:24:34;;;;;;;18.98;10.95;;;;;;;;;;5093411;28;20043;-63
2021/10/15 11:27:00;;;;;;;17.23;11.00;;;;;;;;;;5093176;28;20469;-63
2021/10/15 11:29:26;;;;;;;18.10;10.85;;;;;;;;;;5093419;28;20016;-64
2021/10/15 11:31:56;;;;;;;16.77;10.00;;;;;;;;;;5092802;28;20016;-64
2021/10/15 11:34:23;;;;;;;18.33;10.60;;;;;;;;;;5091823;28;20375;-65
2021/10/15 11:37:00;;;;;;;18.83;10.73;;;;;;;;;;5092906;28;20463;-64
2021/10/15 11:39:26;;;;;;;18.63;11.77;;;;;;;;;;5093062;28;20112;-63
2021/10/15 11:41:51;;;;;;;18.55;11.07;;;10.80;99.90;;;;;;5092930;28;20056;-65
2021/10/15 11:44:37;;;;;;;17.55;11.52;;;;;;;;;;5092568;28;20099;-65
2021/10/15 11:47:03;;;;;;;19.90;11.80;;;;;;;;;;5092440;28;20020;-65
2021/10/15 11:49:39;;;;;;;20.80;11.18;;;;;;;;;;5092726;28;20025;-65
2021/10/15 11:52:05;;;;;;;20.27;12.25;;;;;;;;;;5092681;28;20065;-65
2021/10/15 11:54:31;;;;;;;18.73;11.18;;;;;;;;;;5092890;28;20048;-65
2021/10/15 11:56:57;;;;;;;17.45;11.40;;;;;;;;;;5090839;28;20032;-64
2021/10/15 11:59:25;;;;;;;19.67;11.00;;;;;;;;;;5092383;28;20146;-64
2021/10/15 12:01:51;;;;;;;16.63;10.98;;;;;;;;;;5091996;28;20039;-64
2021/10/15 12:04:17;;;;;;;24.42;11.13;;;;;;;;;;5090633;28;20032;-65
2021/10/15 12:06:44;;;;;;;17.55;10.48;;;;;;;;;;5092350;28;20464;-65
2021/10/15 12:09:18;;;;;;;23.15;11.65;;;;;;;;;;5091163;28;20066;-65
2021/10/15 12:12:04;;;;;;;20.77;10.75;;;19.20;99.90;;;;;;5091042;28;20502;-65
2021/10/15 12:14:32;;;;;;;17.17;10.85;;;;;;;;;;5090969;28;20050;-61
2021/10/15 12:17:11;;;;;;;20.00;11.13;;;;;;;;;;5090968;28;20028;-66
2021/10/15 12:19:47;;;;;;;20.90;12.13;;;;;;;;;;5092380;28;20032;-64
2021/10/15 12:22:26;;;;;;;15.88;11.50;;;;;;;;;;5090310;28;20502;-64
2021/10/15 12:24:58;;;;;;;20.05;11.98;;;17.40;99.90;;;;;;5071635;28;20028;-65
2021/10/15 12:27:35;;;;;;;17.42;12.18;;;;;;;;;;5070758;28;20081;-63
2021/10/15 12:30:07;;;;;;;20.20;13.00;;;;;;;;;;5072737;28;20056;-64
2021/10/15 12:32:39;;;;;;;17.77;12.27;;;21.90;99.90;;;;;;5071574;28;20365;-64
2021/10/15 12:35:13;;;;;;;21.52;12.32;;;20.80;99.90;;;;;;5072205;28;20144;-65
2021/10/15 12:37:42;;;;;;;18.02;12.50;;;20.30;99.90;;;;;;5071719;28;20024;-64
2021/10/15 12:40:16;;;;;;;16.95;11.55;;;21.00;99.90;;;;;;5071441;28;20020;-64
2021/10/15 12:42:43;;;;;;;17.83;11.57;;;21.10;99.90;;;;;;5071679;28;20059;-67
2021/10/15 12:45:14;;;;;;;18.80;11.57;;;;;;;;;;5071093;28;20028;-64
2021/10/15 12:47:40;;;;;;;19.13;11.52;;;;;;;;;;5069948;28;20029;-64
2021/10/15 12:50:08;;;;;;;17.23;11.40;;;;;;;;;;5069625;28;20044;-64
2021/10/15 12:52:41;;;;;;;17.42;11.30;;;;;;;;;;5071356;28;20475;-64
2021/10/15 12:55:22;;;;;;;18.25;11.40;;;;;;;;;;5071674;28;20032;-63
2021/10/15 12:57:49;;;;;;;18.02;11.13;;;;;;;;;;5069886;28;20028;-64
2021/10/15 13:00:18;;;;;;;17.05;11.40;;;;;;;;;;5071338;28;20086;-64
2021/10/15 13:02:44;;;;;;;18.90;11.48;;;;;;;;;;5069614;28;20043;-64
2021/10/15 13:05:11;;;;;;;18.67;11.93;;;;;;;;;;5070570;28;20032;-63
2021/10/15 13:07:38;;;;;;;16.52;11.52;;;;;;;;;;5071111;28;20021;-65
2021/10/15 13:10:17;;;;;;;18.67;11.30;;;;;;;;;;5070124;28;20028;-64
2021/10/15 13:12:44;;;;;;;18.60;12.02;;;21.00;99.90;;;;;;5071171;28;20142;-64
2021/10/15 13:15:10;;;;;;;17.38;11.50;;;;;;;;;;5071031;28;20517;-62
2021/10/15 13:17:37;;;;;;;16.40;11.07;;;;;;;;;;5069630;28;20486;-65
2021/10/15 13:20:05;;;;;;;16.77;11.48;;;;;;;;;;5071489;28;20172;-66
2021/10/15 13:22:31;;;;;;;17.63;11.35;;;;;;;;;;5070995;28;20028;-65
2021/10/15 13:24:57;;;;;;;18.38;10.98;;;;;;;;;;5091147;28;20512;-63
2021/10/15 13:27:23;;;;;;;19.20;11.98;;;;;;;;;;5089685;28;20111;-64
2021/10/15 13:29:49;;;;;;;19.17;12.07;;;;;;;;;;5089965;28;20042;-64
2021/10/15 13:32:15;;;;;;;18.77;12.07;;;;;;;;;;5091561;28;20046;-63
2021/10/15 13:34:45;;;;;;;17.88;11.70;;;;;;;;;;5089756;28;20036;-64
2021/10/15 13:37:15;;;;;;;18.73;11.65;;;;;;;;;;5091204;28;20103;-64
2021/10/15 13:39:46;;;;;;;19.73;11.80;;;;;;;;;;5091662;28;20046;-64
2021/10/15 13:50:07;;;;;;;17.23;11.80;;;;;;;;;;5082496;28;20373;-63
2021/10/15 13:52:33;;;;;;;20.60;11.63;;;;;;;;;;5093934;28;20131;-63
2021/10/15 13:55:02;;;;;;;18.23;11.35;;;;;;;;;;5093832;28;20055;-64
2021/10/15 13:57:28;;;;;;;19.83;12.30;;;;;;;;;;5094912;28;20050;-64
2021/10/15 14:00:02;;;;;;;20.83;11.95;;;;;;;;;;5095266;28;20064;-63
2021/10/15 14:02:33;;;;;;;20.13;12.65;;;;;;;;;;5094561;28;20032;-64
2021/10/15 14:04:59;;;;;;;18.98;11.88;;;;;;;;;;5095723;28;20545;-64
2021/10/15 14:07:25;;;;;;;20.20;12.00;;;;;;;;;;5096183;28;20028;-63
2021/10/15 14:09:52;;;;;;;21.60;12.80;;;;;;;;;;5094812;28;20472;-64
2021/10/15 14:12:18;;;;;;;19.60;11.98;;;;;;;;;;5095842;28;20028;-64
2021/10/15 14:14:44;;;;;;;22.65;12.20;;;;;;;;;;5095477;28;20283;-64
2021/10/15 14:17:10;;;;;;;19.27;11.65;;;;;;;;;;5093623;28;20229;-64
2021/10/15 14:19:37;;;;;;;22.17;12.65;;;;;;;;;;5094853;28;20086;-60
2021/10/15 14:22:04;;;;;;;20.05;11.88;;;;;;;;;;5094513;28;20051;-64
2021/10/15 14:24:31;;;;;;;19.10;11.70;;;;;;;;;;5094371;28;20166;-64
2021/10/15 14:26:57;;;;;;;20.25;12.10;;;;;;;;;;5094330;28;20020;-63
2021/10/15 14:29:23;;;;;;;23.15;12.23;;;;;;;;;;5094923;28;20067;-64
2021/10/15 14:31:49;;;;;;;19.85;12.30;;;;;;;;;;5094859;28;20024;-65
2021/10/15 14:34:15;;;;;;;20.42;11.45;;;;;;;;;;5094331;28;20054;-63
2021/10/15 14:36:41;;;;;;;20.27;11.73;;;;;;;;;;5092526;28;20104;-64
2021/10/15 14:39:07;;;;;;;19.05;11.55;;;;;;;;;;5093120;28;20020;-64
2021/10/15 14:41:35;;;;;;;19.30;11.60;;;;;;;;;;5092994;28;20543;-64